sensor_id;sensor_type;location;lat;lon;timestamp;P1;durP1;ratioP1;P2;durP2;ratioP2
21645;SDS011;10984;45.712;4.800;2022-09-09T00:15:43;4.38;;;0.80;;
21645;SDS011;10984;45.712;4.800;2022-09-09T00:21:35;1.15;;;0.65;;
21645;SDS011;10984;45.712;4.800;2022-09-09T00:24:12;2.83;;;0.50;;
21645;SDS011;10984;45.712;4.800;2022-09-09T00:27:01;2.38;;;0.50;;
21645;SDS011;10984;45.712;4.800;2022-09-09T00:32:34;2.28;;;0.57;;
21645;SDS011;10984;45.712;4.800;2022-09-09T00:38:06;2.35;;;0.60;;
21645;SDS011;10984;45.712;4.800;2022-09-09T00:43:57;1.60;;;0.70;;
21645;SDS011;10984;45.712;4.800;2022-09-09T00:58:07;1.67;;;0.77;;
21645;SDS011;10984;45.712;4.800;2022-09-09T01:00:44;0.75;;;0.47;;
21645;SDS011;10984;45.712;4.800;2022-09-09T01:06:35;4.10;;;0.77;;
21645;SDS011;10984;45.712;4.800;2022-09-09T01:12:09;5.22;;;1.42;;
21645;SDS011;10984;45.712;4.800;2022-09-09T01:20:37;1.15;;;0.60;;
21645;SDS011;10984;45.712;4.800;2022-09-09T01:28:52;2.42;;;0.63;;
21645;SDS011;10984;45.712;4.800;2022-09-09T01:36:54;2.97;;;1.00;;
21645;SDS011;10984;45.712;4.800;2022-09-09T01:39:40;2.00;;;0.80;;
21645;SDS011;10984;45.712;4.800;2022-09-09T01:42:09;4.10;;;1.00;;
21645;SDS011;10984;45.712;4.800;2022-09-09T01:44:36;1.70;;;0.68;;
21645;SDS011;10984;45.712;4.800;2022-09-09T01:47:03;2.80;;;0.75;;
21645;SDS011;10984;45.712;4.800;2022-09-09T01:49:29;2.60;;;0.73;;
21645;SDS011;10984;45.712;4.800;2022-09-09T01:51:55;3.45;;;0.80;;
21645;SDS011;10984;45.712;4.800;2022-09-09T01:54:22;3.88;;;0.90;;
21645;SDS011;10984;45.712;4.800;2022-09-09T02:02:44;3.88;;;1.10;;
21645;SDS011;10984;45.712;4.800;2022-09-09T02:08:22;4.30;;;0.80;;
21645;SDS011;10984;45.712;4.800;2022-09-09T02:13:56;1.15;;;0.60;;
21645;SDS011;10984;45.712;4.800;2022-09-09T02:22:31;2.33;;;0.80;;
21645;SDS011;10984;45.712;4.800;2022-09-09T02:25:00;1.80;;;0.73;;
21645;SDS011;10984;45.712;4.800;2022-09-09T02:27:27;2.70;;;1.00;;
21645;SDS011;10984;45.712;4.800;2022-09-09T02:29:54;1.85;;;0.80;;
21645;SDS011;10984;45.712;4.800;2022-09-09T02:32:24;1.77;;;0.88;;
21645;SDS011;10984;45.712;4.800;2022-09-09T02:37:37;1.83;;;0.80;;
21645;SDS011;10984;45.712;4.800;2022-09-09T02:40:04;3.38;;;0.93;;
21645;SDS011;10984;45.712;4.800;2022-09-09T02:42:32;2.03;;;0.98;;
21645;SDS011;10984;45.712;4.800;2022-09-09T02:45:03;6.07;;;0.90;;
21645;SDS011;10984;45.712;4.800;2022-09-09T02:47:30;6.85;;;1.77;;
21645;SDS011;10984;45.712;4.800;2022-09-09T02:55:55;6.65;;;1.60;;
21645;SDS011;10984;45.712;4.800;2022-09-09T02:58:25;3.55;;;0.95;;
21645;SDS011;10984;45.712;4.800;2022-09-09T03:00:51;6.40;;;1.30;;
21645;SDS011;10984;45.712;4.800;2022-09-09T03:03:18;3.63;;;1.10;;
21645;SDS011;10984;45.712;4.800;2022-09-09T03:05:45;2.88;;;0.80;;
21645;SDS011;10984;45.712;4.800;2022-09-09T03:08:11;3.42;;;0.85;;
21645;SDS011;10984;45.712;4.800;2022-09-09T03:10:38;4.07;;;0.88;;
21645;SDS011;10984;45.712;4.800;2022-09-09T03:13:04;2.13;;;0.85;;
21645;SDS011;10984;45.712;4.800;2022-09-09T03:15:30;2.03;;;0.75;;
21645;SDS011;10984;45.712;4.800;2022-09-09T03:17:57;2.70;;;0.93;;
21645;SDS011;10984;45.712;4.800;2022-09-09T03:20:27;2.10;;;0.82;;
21645;SDS011;10984;45.712;4.800;2022-09-09T03:22:54;2.47;;;1.08;;
21645;SDS011;10984;45.712;4.800;2022-09-09T03:25:21;3.22;;;1.30;;
21645;SDS011;10984;45.712;4.800;2022-09-09T03:27:49;4.50;;;0.98;;
21645;SDS011;10984;45.712;4.800;2022-09-09T03:30:15;1.67;;;0.85;;
21645;SDS011;10984;45.712;4.800;2022-09-09T03:32:41;2.05;;;0.68;;
21645;SDS011;10984;45.712;4.800;2022-09-09T03:35:07;2.15;;;0.98;;
21645;SDS011;10984;45.712;4.800;2022-09-09T03:37:33;2.15;;;0.98;;
21645;SDS011;10984;45.712;4.800;2022-09-09T03:39:58;2.15;;;1.02;;
21645;SDS011;10984;45.712;4.800;2022-09-09T03:42:25;3.78;;;1.00;;
21645;SDS011;10984;45.712;4.800;2022-09-09T03:44:50;2.47;;;0.80;;
21645;SDS011;10984;45.712;4.800;2022-09-09T03:47:17;2.20;;;1.00;;
21645;SDS011;10984;45.712;4.800;2022-09-09T03:49:43;3.00;;;1.02;;
21645;SDS011;10984;45.712;4.800;2022-09-09T03:52:09;3.10;;;0.90;;
21645;SDS011;10984;45.712;4.800;2022-09-09T03:54:35;1.80;;;0.85;;
21645;SDS011;10984;45.712;4.800;2022-09-09T03:57:01;4.25;;;1.15;;
21645;SDS011;10984;45.712;4.800;2022-09-09T03:59:27;2.70;;;1.08;;
21645;SDS011;10984;45.712;4.800;2022-09-09T04:01:53;1.90;;;0.90;;
21645;SDS011;10984;45.712;4.800;2022-09-09T04:04:19;4.85;;;1.00;;
21645;SDS011;10984;45.712;4.800;2022-09-09T04:06:45;7.30;;;1.35;;
21645;SDS011;10984;45.712;4.800;2022-09-09T04:09:13;2.83;;;0.93;;
21645;SDS011;10984;45.712;4.800;2022-09-09T04:11:39;4.22;;;0.88;;
21645;SDS011;10984;45.712;4.800;2022-09-09T04:14:05;3.95;;;1.02;;
21645;SDS011;10984;45.712;4.800;2022-09-09T04:16:32;2.97;;;1.08;;
21645;SDS011;10984;45.712;4.800;2022-09-09T04:18:59;3.75;;;1.50;;
21645;SDS011;10984;45.712;4.800;2022-09-09T04:21:25;2.75;;;1.25;;
21645;SDS011;10984;45.712;4.800;2022-09-09T04:23:51;4.28;;;1.52;;
21645;SDS011;10984;45.712;4.800;2022-09-09T04:26:16;4.90;;;1.63;;
21645;SDS011;10984;45.712;4.800;2022-09-09T04:28:43;7.10;;;1.75;;
21645;SDS011;10984;45.712;4.800;2022-09-09T04:31:09;2.20;;;0.93;;
21645;SDS011;10984;45.712;4.800;2022-09-09T04:33:40;2.67;;;1.05;;
21645;SDS011;10984;45.712;4.800;2022-09-09T04:36:06;2.88;;;0.77;;
21645;SDS011;10984;45.712;4.800;2022-09-09T04:38:32;2.90;;;1.23;;
21645;SDS011;10984;45.712;4.800;2022-09-09T04:40:58;4.03;;;1.08;;
21645;SDS011;10984;45.712;4.800;2022-09-09T04:43:23;5.47;;;1.02;;
21645;SDS011;10984;45.712;4.800;2022-09-09T04:45:51;5.88;;;1.02;;
21645;SDS011;10984;45.712;4.800;2022-09-09T04:48:17;3.28;;;0.75;;
21645;SDS011;10984;45.712;4.800;2022-09-09T04:50:43;2.72;;;0.90;;
21645;SDS011;10984;45.712;4.800;2022-09-09T04:53:09;4.13;;;1.17;;
21645;SDS011;10984;45.712;4.800;2022-09-09T04:55:34;2.10;;;1.10;;
21645;SDS011;10984;45.712;4.800;2022-09-09T05:00:46;2.17;;;1.00;;
21645;SDS011;10984;45.712;4.800;2022-09-09T05:03:12;2.63;;;1.25;;
21645;SDS011;10984;45.712;4.800;2022-09-09T05:05:38;1.75;;;0.90;;
21645;SDS011;10984;45.712;4.800;2022-09-09T05:08:04;5.47;;;0.68;;
21645;SDS011;10984;45.712;4.800;2022-09-09T05:10:31;4.28;;;1.05;;
21645;SDS011;10984;45.712;4.800;2022-09-09T05:12:57;2.15;;;1.05;;
21645;SDS011;10984;45.712;4.800;2022-09-09T05:15:23;2.45;;;1.10;;
21645;SDS011;10984;45.712;4.800;2022-09-09T05:17:49;1.75;;;0.90;;
21645;SDS011;10984;45.712;4.800;2022-09-09T05:20:14;2.30;;;0.90;;
21645;SDS011;10984;45.712;4.800;2022-09-09T05:22:40;2.92;;;1.10;;
21645;SDS011;10984;45.712;4.800;2022-09-09T05:25:06;4.03;;;1.65;;
21645;SDS011;10984;45.712;4.800;2022-09-09T05:27:33;5.28;;;1.52;;
21645;SDS011;10984;45.712;4.800;2022-09-09T05:29:59;3.38;;;1.20;;
21645;SDS011;10984;45.712;4.800;2022-09-09T05:32:24;4.07;;;1.23;;
21645;SDS011;10984;45.712;4.800;2022-09-09T05:34:51;1.95;;;0.95;;
21645;SDS011;10984;45.712;4.800;2022-09-09T05:37:17;4.55;;;1.40;;
21645;SDS011;10984;45.712;4.800;2022-09-09T05:39:43;3.70;;;1.33;;
21645;SDS011;10984;45.712;4.800;2022-09-09T05:42:09;3.05;;;1.35;;
21645;SDS011;10984;45.712;4.800;2022-09-09T05:44:35;3.72;;;1.42;;
21645;SDS011;10984;45.712;4.800;2022-09-09T05:47:00;4.85;;;1.67;;
21645;SDS011;10984;45.712;4.800;2022-09-09T05:49:26;3.72;;;1.48;;
21645;SDS011;10984;45.712;4.800;2022-09-09T05:51:52;3.90;;;1.00;;
21645;SDS011;10984;45.712;4.800;2022-09-09T05:54:18;4.88;;;1.38;;
21645;SDS011;10984;45.712;4.800;2022-09-09T05:56:43;4.85;;;1.20;;
21645;SDS011;10984;45.712;4.800;2022-09-09T05:59:09;3.75;;;0.93;;
21645;SDS011;10984;45.712;4.800;2022-09-09T06:01:36;3.15;;;0.88;;
21645;SDS011;10984;45.712;4.800;2022-09-09T06:04:21;4.22;;;1.00;;
21645;SDS011;10984;45.712;4.800;2022-09-09T06:06:47;4.05;;;1.00;;
21645;SDS011;10984;45.712;4.800;2022-09-09T06:09:13;2.70;;;1.00;;
21645;SDS011;10984;45.712;4.800;2022-09-09T06:11:40;6.65;;;1.25;;
21645;SDS011;10984;45.712;4.800;2022-09-09T06:14:07;5.38;;;1.08;;
21645;SDS011;10984;45.712;4.800;2022-09-09T06:16:34;2.45;;;1.30;;
21645;SDS011;10984;45.712;4.800;2022-09-09T06:19:02;7.28;;;1.75;;
21645;SDS011;10984;45.712;4.800;2022-09-09T06:23:55;5.97;;;1.38;;
21645;SDS011;10984;45.712;4.800;2022-09-09T06:26:22;3.40;;;1.10;;
21645;SDS011;10984;45.712;4.800;2022-09-09T06:28:50;4.22;;;0.90;;
21645;SDS011;10984;45.712;4.800;2022-09-09T06:31:18;3.85;;;1.20;;
21645;SDS011;10984;45.712;4.800;2022-09-09T06:34:05;3.00;;;1.10;;
21645;SDS011;10984;45.712;4.800;2022-09-09T06:36:33;3.25;;;1.00;;
21645;SDS011;10984;45.712;4.800;2022-09-09T06:39:01;3.55;;;1.00;;
21645;SDS011;10984;45.712;4.800;2022-09-09T06:41:28;2.72;;;1.05;;
21645;SDS011;10984;45.712;4.800;2022-09-09T06:43:55;2.80;;;1.35;;
21645;SDS011;10984;45.712;4.800;2022-09-09T06:46:22;2.95;;;1.00;;
21645;SDS011;10984;45.712;4.800;2022-09-09T06:49:08;4.30;;;1.00;;
21645;SDS011;10984;45.712;4.800;2022-09-09T06:51:35;8.35;;;1.67;;
21645;SDS011;10984;45.712;4.800;2022-09-09T06:54:07;8.52;;;1.55;;
21645;SDS011;10984;45.712;4.800;2022-09-09T06:56:35;4.78;;;1.33;;
21645;SDS011;10984;45.712;4.800;2022-09-09T06:59:03;6.55;;;1.55;;
21645;SDS011;10984;45.712;4.800;2022-09-09T07:04:17;4.18;;;0.80;;
21645;SDS011;10984;45.712;4.800;2022-09-09T07:06:43;2.97;;;0.93;;
21645;SDS011;10984;45.712;4.800;2022-09-09T07:09:11;2.75;;;0.95;;
21645;SDS011;10984;45.712;4.800;2022-09-09T07:11:42;9.15;;;1.55;;
21645;SDS011;10984;45.712;4.800;2022-09-09T07:14:10;5.97;;;1.30;;
21645;SDS011;10984;45.712;4.800;2022-09-09T07:16:54;5.82;;;1.83;;
21645;SDS011;10984;45.712;4.800;2022-09-09T07:19:20;4.30;;;1.80;;
21645;SDS011;10984;45.712;4.800;2022-09-09T07:21:46;3.58;;;1.10;;
21645;SDS011;10984;45.712;4.800;2022-09-09T07:24:11;4.68;;;0.77;;
21645;SDS011;10984;45.712;4.800;2022-09-09T07:26:38;1.63;;;0.63;;
21645;SDS011;10984;45.712;4.800;2022-09-09T07:29:04;4.18;;;0.60;;
21645;SDS011;10984;45.712;4.800;2022-09-09T07:31:31;3.25;;;0.95;;
21645;SDS011;10984;45.712;4.800;2022-09-09T07:33:58;3.65;;;0.60;;
21645;SDS011;10984;45.712;4.800;2022-09-09T07:36:28;2.08;;;0.80;;
21645;SDS011;10984;45.712;4.800;2022-09-09T07:39:13;3.92;;;0.90;;
21645;SDS011;10984;45.712;4.800;2022-09-09T07:44:24;2.65;;;0.55;;
21645;SDS011;10984;45.712;4.800;2022-09-09T07:46:51;5.05;;;1.27;;
21645;SDS011;10984;45.712;4.800;2022-09-09T07:49:17;2.83;;;0.68;;
21645;SDS011;10984;45.712;4.800;2022-09-09T07:51:44;2.97;;;1.23;;
21645;SDS011;10984;45.712;4.800;2022-09-09T07:54:14;3.03;;;0.70;;
21645;SDS011;10984;45.712;4.800;2022-09-09T07:56:41;2.58;;;0.85;;
21645;SDS011;10984;45.712;4.800;2022-09-09T07:59:07;2.33;;;0.60;;
21645;SDS011;10984;45.712;4.800;2022-09-09T08:01:35;3.63;;;0.60;;
21645;SDS011;10984;45.712;4.800;2022-09-09T08:04:05;1.23;;;0.50;;
21645;SDS011;10984;45.712;4.800;2022-09-09T08:06:55;7.90;;;1.52;;
21645;SDS011;10984;45.712;4.800;2022-09-09T08:09:20;1.52;;;0.73;;
21645;SDS011;10984;45.712;4.800;2022-09-09T08:11:47;2.58;;;0.35;;
21645;SDS011;10984;45.712;4.800;2022-09-09T08:14:13;2.05;;;0.70;;
21645;SDS011;10984;45.712;4.800;2022-09-09T08:16:40;1.40;;;0.40;;
21645;SDS011;10984;45.712;4.800;2022-09-09T08:19:08;1.15;;;0.47;;
21645;SDS011;10984;45.712;4.800;2022-09-09T08:21:35;1.27;;;0.32;;
21645;SDS011;10984;45.712;4.800;2022-09-09T08:24:04;2.85;;;0.70;;
21645;SDS011;10984;45.712;4.800;2022-09-09T08:26:31;2.92;;;0.70;;
21645;SDS011;10984;45.712;4.800;2022-09-09T08:28:59;1.40;;;0.57;;
21645;SDS011;10984;45.712;4.800;2022-09-09T08:31:48;0.82;;;0.30;;
21645;SDS011;10984;45.712;4.800;2022-09-09T08:34:14;1.50;;;0.40;;
21645;SDS011;10984;45.712;4.800;2022-09-09T08:39:24;2.42;;;0.50;;
21645;SDS011;10984;45.712;4.800;2022-09-09T09:13:13;1.05;;;0.32;;
21645;SDS011;10984;45.712;4.800;2022-09-09T09:19:03;1.08;;;0.30;;
21645;SDS011;10984;45.712;4.800;2022-09-09T09:29:57;1.80;;;0.30;;
21645;SDS011;10984;45.712;4.800;2022-09-09T09:32:25;2.38;;;0.52;;
21645;SDS011;10984;45.712;4.800;2022-09-09T09:34:54;0.45;;;0.20;;
21645;SDS011;10984;45.712;4.800;2022-09-09T09:45:55;1.80;;;0.30;;
21645;SDS011;10984;45.712;4.800;2022-09-09T09:48:22;2.03;;;0.35;;
21645;SDS011;10984;45.712;4.800;2022-09-09T09:50:51;1.05;;;0.15;;
21645;SDS011;10984;45.712;4.800;2022-09-09T09:53:37;1.50;;;0.40;;
21645;SDS011;10984;45.712;4.800;2022-09-09T09:56:05;2.42;;;0.40;;
21645;SDS011;10984;45.712;4.800;2022-09-09T10:01:28;3.53;;;0.30;;
21645;SDS011;10984;45.712;4.800;2022-09-09T10:04:02;2.17;;;0.45;;
21645;SDS011;10984;45.712;4.800;2022-09-09T10:06:49;0.40;;;0.20;;
21645;SDS011;10984;45.712;4.800;2022-09-09T11:03:02;1.25;;;0.35;;
21645;SDS011;10984;45.712;4.800;2022-09-09T11:08:32;1.85;;;0.50;;
21645;SDS011;10984;45.712;4.800;2022-09-09T11:19:36;0.80;;;0.30;;
21645;SDS011;10984;45.712;4.800;2022-09-09T11:31:17;0.63;;;0.20;;
21645;SDS011;10984;45.712;4.800;2022-09-09T11:45:50;2.00;;;0.35;;
21645;SDS011;10984;45.712;4.800;2022-09-09T12:15:51;0.73;;;0.28;;
21645;SDS011;10984;45.712;4.800;2022-09-09T12:18:40;1.05;;;0.22;;
21645;SDS011;10984;45.712;4.800;2022-09-09T12:26:58;2.42;;;0.30;;
21645;SDS011;10984;45.712;4.800;2022-09-09T12:29:38;0.88;;;0.35;;
21645;SDS011;10984;45.712;4.800;2022-09-09T12:42:53;0.57;;;0.20;;
21645;SDS011;10984;45.712;4.800;2022-09-09T12:48:06;2.17;;;0.82;;
21645;SDS011;10984;45.712;4.800;2022-09-09T12:50:37;1.10;;;0.22;;
21645;SDS011;10984;45.712;4.800;2022-09-09T12:53:12;1.73;;;0.77;;
21645;SDS011;10984;45.712;4.800;2022-09-09T12:58:45;2.75;;;0.38;;
21645;SDS011;10984;45.712;4.800;2022-09-09T13:03:58;1.92;;;0.40;;
21645;SDS011;10984;45.712;4.800;2022-09-09T13:06:25;1.85;;;0.20;;
21645;SDS011;10984;45.712;4.800;2022-09-09T13:08:53;1.08;;;0.28;;
21645;SDS011;10984;45.712;4.800;2022-09-09T13:11:21;2.05;;;0.47;;
21645;SDS011;10984;45.712;4.800;2022-09-09T13:14:12;1.20;;;0.30;;
21645;SDS011;10984;45.712;4.800;2022-09-09T13:20:01;3.15;;;0.73;;
21645;SDS011;10984;45.712;4.800;2022-09-09T13:28:01;7.38;;;2.15;;
21645;SDS011;10984;45.712;4.800;2022-09-09T13:33:33;1.02;;;0.35;;
21645;SDS011;10984;45.712;4.800;2022-09-09T13:39:13;2.35;;;0.30;;
21645;SDS011;10984;45.712;4.800;2022-09-09T13:41:43;1.98;;;0.70;;
21645;SDS011;10984;45.712;4.800;2022-09-09T13:52:47;1.25;;;0.43;;
21645;SDS011;10984;45.712;4.800;2022-09-09T13:55:16;0.40;;;0.22;;
21645;SDS011;10984;45.712;4.800;2022-09-09T14:03:13;1.73;;;0.52;;
21645;SDS011;10984;45.712;4.800;2022-09-09T14:05:38;1.83;;;0.25;;
21645;SDS011;10984;45.712;4.800;2022-09-09T14:08:05;0.47;;;0.13;;
21645;SDS011;10984;45.712;4.800;2022-09-09T14:10:32;0.50;;;0.13;;
21645;SDS011;10984;45.712;4.800;2022-09-09T14:13:02;0.10;;;0.10;;
21645;SDS011;10984;45.712;4.800;2022-09-09T14:15:28;1.50;;;0.40;;
21645;SDS011;10984;45.712;4.800;2022-09-09T14:17:54;0.85;;;0.20;;
21645;SDS011;10984;45.712;4.800;2022-09-09T14:20:20;0.50;;;0.20;;
21645;SDS011;10984;45.712;4.800;2022-09-09T14:22:46;0.15;;;0.13;;
21645;SDS011;10984;45.712;4.800;2022-09-09T14:25:11;0.90;;;0.30;;
21645;SDS011;10984;45.712;4.800;2022-09-09T14:27:56;0.98;;;0.32;;
21645;SDS011;10984;45.712;4.800;2022-09-09T14:30:21;1.38;;;0.28;;
21645;SDS011;10984;45.712;4.800;2022-09-09T14:32:47;1.42;;;0.40;;
21645;SDS011;10984;45.712;4.800;2022-09-09T14:35:13;1.02;;;0.30;;
21645;SDS011;10984;45.712;4.800;2022-09-09T14:37:38;0.75;;;0.25;;
21645;SDS011;10984;45.712;4.800;2022-09-09T14:40:04;1.17;;;0.20;;
21645;SDS011;10984;45.712;4.800;2022-09-09T14:42:31;0.98;;;0.40;;
21645;SDS011;10984;45.712;4.800;2022-09-09T14:44:56;2.20;;;0.28;;
21645;SDS011;10984;45.712;4.800;2022-09-09T14:47:22;1.88;;;0.30;;
21645;SDS011;10984;45.712;4.800;2022-09-09T14:49:47;1.95;;;0.52;;
21645;SDS011;10984;45.712;4.800;2022-09-09T14:52:14;3.40;;;0.57;;
21645;SDS011;10984;45.712;4.800;2022-09-09T14:54:41;2.00;;;0.20;;
21645;SDS011;10984;45.712;4.800;2022-09-09T14:57:06;0.88;;;0.28;;
21645;SDS011;10984;45.712;4.800;2022-09-09T14:59:32;1.90;;;0.30;;
21645;SDS011;10984;45.712;4.800;2022-09-09T15:01:59;0.88;;;0.25;;
21645;SDS011;10984;45.712;4.800;2022-09-09T15:04:29;0.70;;;0.20;;
21645;SDS011;10984;45.712;4.800;2022-09-09T15:06:54;0.73;;;0.20;;
21645;SDS011;10984;45.712;4.800;2022-09-09T15:09:20;0.93;;;0.20;;
21645;SDS011;10984;45.712;4.800;2022-09-09T15:11:46;0.60;;;0.15;;
21645;SDS011;10984;45.712;4.800;2022-09-09T15:14:11;0.45;;;0.20;;
21645;SDS011;10984;45.712;4.800;2022-09-09T15:16:37;0.60;;;0.28;;
21645;SDS011;10984;45.712;4.800;2022-09-09T15:19:04;0.50;;;0.10;;
21645;SDS011;10984;45.712;4.800;2022-09-09T15:21:30;2.17;;;0.25;;
21645;SDS011;10984;45.712;4.800;2022-09-09T15:23:57;1.33;;;0.22;;
21645;SDS011;10984;45.712;4.800;2022-09-09T15:26:24;0.90;;;0.30;;
21645;SDS011;10984;45.712;4.800;2022-09-09T15:28:51;1.40;;;0.47;;
21645;SDS011;10984;45.712;4.800;2022-09-09T15:31:18;1.20;;;0.52;;
21645;SDS011;10984;45.712;4.800;2022-09-09T15:34:04;1.08;;;0.20;;
21645;SDS011;10984;45.712;4.800;2022-09-09T15:36:31;2.83;;;0.30;;
21645;SDS011;10984;45.712;4.800;2022-09-09T15:38:57;1.45;;;0.22;;
21645;SDS011;10984;45.712;4.800;2022-09-09T15:41:24;3.50;;;0.30;;
21645;SDS011;10984;45.712;4.800;2022-09-09T15:43:51;1.70;;;0.10;;
21645;SDS011;10984;45.712;4.800;2022-09-09T15:51:33;0.70;;;0.15;;
21645;SDS011;10984;45.712;4.800;2022-09-09T15:53:58;0.47;;;0.20;;
21645;SDS011;10984;45.712;4.800;2022-09-09T15:56:25;1.38;;;0.30;;
21645;SDS011;10984;45.712;4.800;2022-09-09T15:59:01;2.63;;;0.30;;
21645;SDS011;10984;45.712;4.800;2022-09-09T16:01:28;0.82;;;0.20;;
21645;SDS011;10984;45.712;4.800;2022-09-09T16:03:56;0.45;;;0.20;;
21645;SDS011;10984;45.712;4.800;2022-09-09T16:06:23;0.70;;;0.20;;
21645;SDS011;10984;45.712;4.800;2022-09-09T16:08:50;1.13;;;0.30;;
21645;SDS011;10984;45.712;4.800;2022-09-09T16:14:03;0.85;;;0.20;;
21645;SDS011;10984;45.712;4.800;2022-09-09T16:16:30;1.55;;;0.40;;
21645;SDS011;10984;45.712;4.800;2022-09-09T16:18:57;1.70;;;0.20;;
21645;SDS011;10984;45.712;4.800;2022-09-09T16:21:25;1.73;;;0.30;;
21645;SDS011;10984;45.712;4.800;2022-09-09T16:26:55;1.05;;;0.47;;
21645;SDS011;10984;45.712;4.800;2022-09-09T16:29:21;3.53;;;0.45;;
21645;SDS011;10984;45.712;4.800;2022-09-09T16:31:49;0.50;;;0.15;;
21645;SDS011;10984;45.712;4.800;2022-09-09T16:34:15;2.80;;;0.30;;
21645;SDS011;10984;45.712;4.800;2022-09-09T16:36:42;1.10;;;0.40;;
21645;SDS011;10984;45.712;4.800;2022-09-09T16:39:10;2.13;;;0.55;;
21645;SDS011;10984;45.712;4.800;2022-09-09T16:41:37;1.60;;;0.60;;
21645;SDS011;10984;45.712;4.800;2022-09-09T16:44:05;3.08;;;0.65;;
21645;SDS011;10984;45.712;4.800;2022-09-09T16:46:33;3.50;;;0.43;;
21645;SDS011;10984;45.712;4.800;2022-09-09T16:49:01;6.25;;;1.00;;
21645;SDS011;10984;45.712;4.800;2022-09-09T16:54:14;0.68;;;0.28;;
21645;SDS011;10984;45.712;4.800;2022-09-09T16:56:42;0.63;;;0.40;;
21645;SDS011;10984;45.712;4.800;2022-09-09T16:59:10;1.50;;;0.30;;
21645;SDS011;10984;45.712;4.800;2022-09-09T17:01:39;2.05;;;0.30;;
21645;SDS011;10984;45.712;4.800;2022-09-09T17:04:07;0.85;;;0.47;;
21645;SDS011;10984;45.712;4.800;2022-09-09T17:06:36;1.38;;;0.52;;
21645;SDS011;10984;45.712;4.800;2022-09-09T17:09:04;3.75;;;0.35;;
21645;SDS011;10984;45.712;4.800;2022-09-09T17:11:33;0.85;;;0.28;;
21645;SDS011;10984;45.712;4.800;2022-09-09T17:13:59;0.60;;;0.30;;
21645;SDS011;10984;45.712;4.800;2022-09-09T17:16:26;1.73;;;0.40;;
21645;SDS011;10984;45.712;4.800;2022-09-09T17:18:55;2.10;;;0.57;;
21645;SDS011;10984;45.712;4.800;2022-09-09T17:21:22;0.95;;;0.30;;
21645;SDS011;10984;45.712;4.800;2022-09-09T17:23:50;1.70;;;0.40;;
21645;SDS011;10984;45.712;4.800;2022-09-09T17:26:17;4.45;;;0.50;;
21645;SDS011;10984;45.712;4.800;2022-09-09T17:28:44;1.88;;;0.50;;
21645;SDS011;10984;45.712;4.800;2022-09-09T17:31:11;3.55;;;0.70;;
21645;SDS011;10984;45.712;4.800;2022-09-09T17:33:40;1.92;;;0.55;;
21645;SDS011;10984;45.712;4.800;2022-09-09T17:36:14;3.78;;;1.02;;
21645;SDS011;10984;45.712;4.800;2022-09-09T17:38:40;3.08;;;0.60;;
21645;SDS011;10984;45.712;4.800;2022-09-09T17:41:12;2.80;;;0.50;;
21645;SDS011;10984;45.712;4.800;2022-09-09T17:43:39;2.92;;;0.55;;
21645;SDS011;10984;45.712;4.800;2022-09-09T17:48:51;1.85;;;0.30;;
21645;SDS011;10984;45.712;4.800;2022-09-09T17:51:20;1.27;;;0.38;;
21645;SDS011;10984;45.712;4.800;2022-09-09T17:54:06;0.85;;;0.30;;
21645;SDS011;10984;45.712;4.800;2022-09-09T17:56:34;2.13;;;0.65;;
21645;SDS011;10984;45.712;4.800;2022-09-09T17:59:00;1.90;;;0.52;;
21645;SDS011;10984;45.712;4.800;2022-09-09T18:01:28;1.83;;;0.28;;
21645;SDS011;10984;45.712;4.800;2022-09-09T18:03:56;1.75;;;0.75;;
21645;SDS011;10984;45.712;4.800;2022-09-09T18:06:25;0.90;;;0.52;;
21645;SDS011;10984;45.712;4.800;2022-09-09T18:08:54;0.43;;;0.30;;
21645;SDS011;10984;45.712;4.800;2022-09-09T18:11:22;3.15;;;0.52;;
21645;SDS011;10984;45.712;4.800;2022-09-09T18:13:50;3.00;;;0.50;;
21645;SDS011;10984;45.712;4.800;2022-09-09T18:16:17;1.48;;;0.45;;
21645;SDS011;10984;45.712;4.800;2022-09-09T18:18:44;1.23;;;0.30;;
21645;SDS011;10984;45.712;4.800;2022-09-09T18:21:10;4.85;;;0.55;;
21645;SDS011;10984;45.712;4.800;2022-09-09T18:23:37;1.30;;;0.30;;
21645;SDS011;10984;45.712;4.800;2022-09-09T18:28:51;3.45;;;0.40;;
21645;SDS011;10984;45.712;4.800;2022-09-09T18:31:19;1.73;;;0.20;;
21645;SDS011;10984;45.712;4.800;2022-09-09T18:34:06;2.08;;;0.63;;
21645;SDS011;10984;45.712;4.800;2022-09-09T18:36:38;3.42;;;0.60;;
21645;SDS011;10984;45.712;4.800;2022-09-09T18:39:24;2.92;;;0.38;;
21645;SDS011;10984;45.712;4.800;2022-09-09T18:41:52;1.33;;;0.43;;
21645;SDS011;10984;45.712;4.800;2022-09-09T18:44:22;2.47;;;0.60;;
21645;SDS011;10984;45.712;4.800;2022-09-09T18:46:50;1.00;;;0.32;;
21645;SDS011;10984;45.712;4.800;2022-09-09T18:49:18;2.00;;;0.80;;
21645;SDS011;10984;45.712;4.800;2022-09-09T18:51:45;1.00;;;0.35;;
21645;SDS011;10984;45.712;4.800;2022-09-09T18:56:57;2.08;;;0.40;;
21645;SDS011;10984;45.712;4.800;2022-09-09T18:59:24;1.95;;;0.35;;
21645;SDS011;10984;45.712;4.800;2022-09-09T19:01:52;3.22;;;1.20;;
21645;SDS011;10984;45.712;4.800;2022-09-09T19:04:18;3.20;;;0.50;;
21645;SDS011;10984;45.712;4.800;2022-09-09T19:06:46;2.00;;;0.50;;
21645;SDS011;10984;45.712;4.800;2022-09-09T19:09:13;0.95;;;0.38;;
21645;SDS011;10984;45.712;4.800;2022-09-09T19:11:41;1.92;;;0.60;;
21645;SDS011;10984;45.712;4.800;2022-09-09T19:14:09;4.55;;;0.50;;
21645;SDS011;10984;45.712;4.800;2022-09-09T19:16:36;1.02;;;0.38;;
21645;SDS011;10984;45.712;4.800;2022-09-09T19:19:05;1.63;;;0.50;;
21645;SDS011;10984;45.712;4.800;2022-09-09T19:21:33;1.55;;;0.40;;
21645;SDS011;10984;45.712;4.800;2022-09-09T19:24:06;2.20;;;0.40;;
21645;SDS011;10984;45.712;4.800;2022-09-09T19:26:37;2.55;;;0.50;;
21645;SDS011;10984;45.712;4.800;2022-09-09T19:31:50;1.92;;;0.90;;
21645;SDS011;10984;45.712;4.800;2022-09-09T19:34:19;1.95;;;0.80;;
21645;SDS011;10984;45.712;4.800;2022-09-09T19:36:45;1.73;;;0.40;;
21645;SDS011;10984;45.712;4.800;2022-09-09T19:39:11;1.90;;;0.57;;
21645;SDS011;10984;45.712;4.800;2022-09-09T19:41:38;3.45;;;0.88;;
21645;SDS011;10984;45.712;4.800;2022-09-09T19:44:04;1.77;;;0.45;;
21645;SDS011;10984;45.712;4.800;2022-09-09T19:46:33;2.95;;;0.50;;
21645;SDS011;10984;45.712;4.800;2022-09-09T19:49:01;3.85;;;0.80;;
21645;SDS011;10984;45.712;4.800;2022-09-09T19:51:29;2.15;;;0.40;;
21645;SDS011;10984;45.712;4.800;2022-09-09T19:56:40;1.27;;;0.50;;
21645;SDS011;10984;45.712;4.800;2022-09-09T19:59:07;4.47;;;0.90;;
21645;SDS011;10984;45.712;4.800;2022-09-09T20:01:38;1.45;;;0.70;;
21645;SDS011;10984;45.712;4.800;2022-09-09T20:04:08;0.98;;;0.40;;
21645;SDS011;10984;45.712;4.800;2022-09-09T20:06:35;2.92;;;0.80;;
21645;SDS011;10984;45.712;4.800;2022-09-09T20:09:02;1.38;;;0.57;;
21645;SDS011;10984;45.712;4.800;2022-09-09T20:11:30;2.88;;;0.90;;
21645;SDS011;10984;45.712;4.800;2022-09-09T20:13:56;1.30;;;0.45;;
21645;SDS011;10984;45.712;4.800;2022-09-09T20:19:07;1.48;;;0.63;;
21645;SDS011;10984;45.712;4.800;2022-09-09T20:21:37;3.85;;;0.52;;
21645;SDS011;10984;45.712;4.800;2022-09-09T20:24:22;3.90;;;0.73;;
21645;SDS011;10984;45.712;4.800;2022-09-09T20:26:48;2.47;;;0.70;;
21645;SDS011;10984;45.712;4.800;2022-09-09T20:29:15;1.70;;;1.02;;
21645;SDS011;10984;45.712;4.800;2022-09-09T20:31:42;1.75;;;0.70;;
21645;SDS011;10984;45.712;4.800;2022-09-09T20:34:10;2.50;;;0.70;;
21645;SDS011;10984;45.712;4.800;2022-09-09T20:36:37;1.67;;;0.70;;
21645;SDS011;10984;45.712;4.800;2022-09-09T20:39:04;2.70;;;0.63;;
21645;SDS011;10984;45.712;4.800;2022-09-09T20:41:36;7.40;;;0.90;;
21645;SDS011;10984;45.712;4.800;2022-09-09T20:44:04;2.17;;;0.80;;
21645;SDS011;10984;45.712;4.800;2022-09-09T20:46:36;2.65;;;0.50;;
21645;SDS011;10984;45.712;4.800;2022-09-09T20:49:04;2.15;;;0.52;;
21645;SDS011;10984;45.712;4.800;2022-09-09T20:51:32;0.75;;;0.43;;